sensor_id;sensor_type;location;lat;lon;timestamp;temperature;humidity
79494;SHT31;68951;53.130;18.104;2023-12-20T00:02:10;7.36;85.60
79494;SHT31;68951;53.130;18.104;2023-12-20T00:04:37;7.38;85.60
79494;SHT31;68951;53.130;18.104;2023-12-20T00:07:04;7.39;85.63
79494;SHT31;68951;53.130;18.104;2023-12-20T00:09:31;7.41;85.61
79494;SHT31;68951;53.130;18.104;2023-12-20T00:11:57;7.42;85.61
79494;SHT31;68951;53.130;18.104;2023-12-20T00:14:24;7.44;85.60
79494;SHT31;68951;53.130;18.104;2023-12-20T00:16:51;7.45;85.61
79494;SHT31;68951;53.130;18.104;2023-12-20T00:19:18;7.42;85.60
79494;SHT31;68951;53.130;18.104;2023-12-20T00:21:44;7.41;85.60
79494;SHT31;68951;53.130;18.104;2023-12-20T00:24:11;7.39;85.62
79494;SHT31;68951;53.130;18.104;2023-12-20T00:26:38;7.39;85.62
79494;SHT31;68951;53.130;18.104;2023-12-20T00:29:05;7.38;85.62
79494;SHT31;68951;53.130;18.104;2023-12-20T00:31:32;7.39;85.64
79494;SHT31;68951;53.130;18.104;2023-12-20T00:33:59;7.38;85.66
79494;SHT31;68951;53.130;18.104;2023-12-20T00:36:25;7.39;85.66
79494;SHT31;68951;53.130;18.104;2023-12-20T00:38:52;7.39;85.69
79494;SHT31;68951;53.130;18.104;2023-12-20T00:41:19;7.40;85.69
79494;SHT31;68951;53.130;18.104;2023-12-20T00:43:46;7.42;85.69
79494;SHT31;68951;53.130;18.104;2023-12-20T00:46:13;7.45;85.70
79494;SHT31;68951;53.130;18.104;2023-12-20T00:48:40;7.47;85.70
79494;SHT31;68951;53.130;18.104;2023-12-20T00:51:08;7.49;85.69
79494;SHT31;68951;53.130;18.104;2023-12-20T00:53:35;7.52;85.68
79494;SHT31;68951;53.130;18.104;2023-12-20T00:56:03;7.53;85.66
79494;SHT31;68951;53.130;18.104;2023-12-20T00:58:30;7.52;85.60
79494;SHT31;68951;53.130;18.104;2023-12-20T01:00:57;7.51;85.60
79494;SHT31;68951;53.130;18.104;2023-12-20T01:03:24;7.51;85.60
79494;SHT31;68951;53.130;18.104;2023-12-20T01:05:51;7.51;85.60
79494;SHT31;68951;53.130;18.104;2023-12-20T01:08:18;7.48;85.60
79494;SHT31;68951;53.130;18.104;2023-12-20T01:10:45;7.50;85.60
79494;SHT31;68951;53.130;18.104;2023-12-20T01:13:13;7.48;85.60
79494;SHT31;68951;53.130;18.104;2023-12-20T01:15:40;7.46;85.60
79494;SHT31;68951;53.130;18.104;2023-12-20T01:18:07;7.46;85.60
79494;SHT31;68951;53.130;18.104;2023-12-20T01:20:33;7.47;85.60
79494;SHT31;68951;53.130;18.104;2023-12-20T01:23:00;7.50;85.60
79494;SHT31;68951;53.130;18.104;2023-12-20T01:25:27;7.49;85.63
79494;SHT31;68951;53.130;18.104;2023-12-20T01:27:54;7.49;85.61
79494;SHT31;68951;53.130;18.104;2023-12-20T01:30:21;7.48;85.60
79494;SHT31;68951;53.130;18.104;2023-12-20T01:32:48;7.47;85.60
79494;SHT31;68951;53.130;18.104;2023-12-20T01:35:14;7.46;85.62
79494;SHT31;68951;53.130;18.104;2023-12-20T01:37:41;7.48;85.62
79494;SHT31;68951;53.130;18.104;2023-12-20T01:40:08;7.51;85.61
79494;SHT31;68951;53.130;18.104;2023-12-20T01:42:36;7.51;85.61
79494;SHT31;68951;53.130;18.104;2023-12-20T01:45:03;7.50;85.61
79494;SHT31;68951;53.130;18.104;2023-12-20T01:47:31;7.49;85.62
79494;SHT31;68951;53.130;18.104;2023-12-20T01:49:58;7.48;85.61
79494;SHT31;68951;53.130;18.104;2023-12-20T01:52:26;7.47;85.62
79494;SHT31;68951;53.130;18.104;2023-12-20T01:54:53;7.45;85.64
79494;SHT31;68951;53.130;18.104;2023-12-20T01:57:27;7.45;85.67
79494;SHT31;68951;53.130;18.104;2023-12-20T01:59:54;7.44;85.70
79494;SHT31;68951;53.130;18.104;2023-12-20T02:02:22;7.47;85.70
79494;SHT31;68951;53.130;18.104;2023-12-20T02:04:49;7.50;85.70
79494;SHT31;68951;53.130;18.104;2023-12-20T02:07:18;7.49;85.70
79494;SHT31;68951;53.130;18.104;2023-12-20T02:09:46;7.48;85.70
79494;SHT31;68951;53.130;18.104;2023-12-20T02:12:14;7.47;85.70
79494;SHT31;68951;53.130;18.104;2023-12-20T02:14:41;7.47;85.71
79494;SHT31;68951;53.130;18.104;2023-12-20T02:17:07;7.46;85.71
79494;SHT31;68951;53.130;18.104;2023-12-20T02:19:34;7.46;85.71
79494;SHT31;68951;53.130;18.104;2023-12-20T02:22:11;7.46;85.75
79494;SHT31;68951;53.130;18.104;2023-12-20T02:24:38;7.47;85.76
79494;SHT31;68951;53.130;18.104;2023-12-20T02:27:06;7.50;85.80
79494;SHT31;68951;53.130;18.104;2023-12-20T02:29:34;7.53;85.80
79494;SHT31;68951;53.130;18.104;2023-12-20T02:32:02;7.55;85.80
79494;SHT31;68951;53.130;18.104;2023-12-20T02:34:29;7.56;85.76
79494;SHT31;68951;53.130;18.104;2023-12-20T02:36:56;7.54;85.78
79494;SHT31;68951;53.130;18.104;2023-12-20T02:39:23;7.50;85.76
79494;SHT31;68951;53.130;18.104;2023-12-20T02:41:50;7.50;85.79
79494;SHT31;68951;53.130;18.104;2023-12-20T02:44:17;7.48;85.80
79494;SHT31;68951;53.130;18.104;2023-12-20T02:46:43;7.50;85.81
79494;SHT31;68951;53.130;18.104;2023-12-20T02:49:11;7.51;85.80
79494;SHT31;68951;53.130;18.104;2023-12-20T02:51:37;7.52;85.80
79494;SHT31;68951;53.130;18.104;2023-12-20T02:54:05;7.54;85.85
79494;SHT31;68951;53.130;18.104;2023-12-20T02:56:32;7.52;85.87
79494;SHT31;68951;53.130;18.104;2023-12-20T02:59:00;7.51;85.89
79494;SHT31;68951;53.130;18.104;2023-12-20T03:01:27;7.47;85.90
79494;SHT31;68951;53.130;18.104;2023-12-20T03:03:55;7.45;85.94
79494;SHT31;68951;53.130;18.104;2023-12-20T03:06:22;7.45;85.98
79494;SHT31;68951;53.130;18.104;2023-12-20T03:08:49;7.47;85.98
79494;SHT31;68951;53.130;18.104;2023-12-20T03:11:16;7.46;85.97
79494;SHT31;68951;53.130;18.104;2023-12-20T03:13:43;7.46;86.00
79494;SHT31;68951;53.130;18.104;2023-12-20T03:16:10;7.44;86.00
79494;SHT31;68951;53.130;18.104;2023-12-20T03:18:38;7.45;86.00
79494;SHT31;68951;53.130;18.104;2023-12-20T03:21:05;7.46;86.00
79494;SHT31;68951;53.130;18.104;2023-12-20T03:23:33;7.45;85.99
79494;SHT31;68951;53.130;18.104;2023-12-20T03:26:00;7.46;86.00
79494;SHT31;68951;53.130;18.104;2023-12-20T03:28:27;7.46;86.00
79494;SHT31;68951;53.130;18.104;2023-12-20T03:30:54;7.48;85.99
79494;SHT31;68951;53.130;18.104;2023-12-20T03:33:21;7.50;85.98
79494;SHT31;68951;53.130;18.104;2023-12-20T03:35:48;7.51;85.94
79494;SHT31;68951;53.130;18.104;2023-12-20T03:38:15;7.51;85.90
79494;SHT31;68951;53.130;18.104;2023-12-20T03:40:42;7.51;85.90
79494;SHT31;68951;53.130;18.104;2023-12-20T03:43:09;7.50;85.90
79494;SHT31;68951;53.130;18.104;2023-12-20T03:45:35;7.51;85.90
79494;SHT31;68951;53.130;18.104;2023-12-20T03:48:02;7.50;85.90
79494;SHT31;68951;53.130;18.104;2023-12-20T03:50:31;7.52;85.90
79494;SHT31;68951;53.130;18.104;2023-12-20T03:52:57;7.51;85.86
79494;SHT31;68951;53.130;18.104;2023-12-20T03:55:24;7.49;85.82
79494;SHT31;68951;53.130;18.104;2023-12-20T03:57:51;7.50;85.80
79494;SHT31;68951;53.130;18.104;2023-12-20T04:00:18;7.49;85.80
79494;SHT31;68951;53.130;18.104;2023-12-20T04:02:44;7.48;85.80
79494;SHT31;68951;53.130;18.104;2023-12-20T04:05:12;7.48;85.80
79494;SHT31;68951;53.130;18.104;2023-12-20T04:07:38;7.48;85.80
79494;SHT31;68951;53.130;18.104;2023-12-20T04:10:05;7.47;85.74
79494;SHT31;68951;53.130;18.104;2023-12-20T04:12:33;7.45;85.72
79494;SHT31;68951;53.130;18.104;2023-12-20T04:15:00;7.44;85.70
79494;SHT31;68951;53.130;18.104;2023-12-20T04:17:27;7.45;85.72
79494;SHT31;68951;53.130;18.104;2023-12-20T04:19:53;7.46;85.71
79494;SHT31;68951;53.130;18.104;2023-12-20T04:22:20;7.47;85.72
79494;SHT31;68951;53.130;18.104;2023-12-20T04:24:47;7.48;85.71
79494;SHT31;68951;53.130;18.104;2023-12-20T04:27:14;7.48;85.70
79494;SHT31;68951;53.130;18.104;2023-12-20T04:29:41;7.49;85.69
79494;SHT31;68951;53.130;18.104;2023-12-20T04:32:08;7.50;85.68
79494;SHT31;68951;53.130;18.104;2023-12-20T04:34:35;7.50;85.61
79494;SHT31;68951;53.130;18.104;2023-12-20T04:37:02;7.49;85.60
79494;SHT31;68951;53.130;18.104;2023-12-20T04:39:30;7.47;85.51
79494;SHT31;68951;53.130;18.104;2023-12-20T04:41:57;7.49;85.50
79494;SHT31;68951;53.130;18.104;2023-12-20T04:44:23;7.48;85.47
79494;SHT31;68951;53.130;18.104;2023-12-20T04:46:50;7.46;85.40
79494;SHT31;68951;53.130;18.104;2023-12-20T04:49:17;7.43;85.35
79494;SHT31;68951;53.130;18.104;2023-12-20T04:51:44;7.44;85.30
79494;SHT31;68951;53.130;18.104;2023-12-20T04:54:11;7.45;85.30
79494;SHT31;68951;53.130;18.104;2023-12-20T04:56:38;7.46;85.30
79494;SHT31;68951;53.130;18.104;2023-12-20T04:59:04;7.46;85.23
79494;SHT31;68951;53.130;18.104;2023-12-20T05:01:32;7.43;85.21
79494;SHT31;68951;53.130;18.104;2023-12-20T05:03:59;7.38;85.12
79494;SHT31;68951;53.130;18.104;2023-12-20T05:06:26;7.35;85.10
79494;SHT31;68951;53.130;18.104;2023-12-20T05:08:53;7.34;85.07
79494;SHT31;68951;53.130;18.104;2023-12-20T05:11:19;7.34;85.02
79494;SHT31;68951;53.130;18.104;2023-12-20T05:13:46;7.32;85.00
79494;SHT31;68951;53.130;18.104;2023-12-20T05:16:13;7.29;84.92
79494;SHT31;68951;53.130;18.104;2023-12-20T05:18:40;7.30;84.91
79494;SHT31;68951;53.130;18.104;2023-12-20T05:21:07;7.30;84.90
79494;SHT31;68951;53.130;18.104;2023-12-20T05:23:34;7.31;84.85
79494;SHT31;68951;53.130;18.104;2023-12-20T05:26:01;7.33;84.81
79494;SHT31;68951;53.130;18.104;2023-12-20T05:28:28;7.31;84.75
79494;SHT31;68951;53.130;18.104;2023-12-20T05:30:55;7.29;84.70
79494;SHT31;68951;53.130;18.104;2023-12-20T05:33:22;7.28;84.64
79494;SHT31;68951;53.130;18.104;2023-12-20T05:35:49;7.30;84.60
79494;SHT31;68951;53.130;18.104;2023-12-20T05:38:16;7.27;84.53
79494;SHT31;68951;53.130;18.104;2023-12-20T05:40:43;7.25;84.49
79494;SHT31;68951;53.130;18.104;2023-12-20T05:43:10;7.24;84.50
79494;SHT31;68951;53.130;18.104;2023-12-20T05:45:36;7.24;84.43
79494;SHT31;68951;53.130;18.104;2023-12-20T05:48:03;7.22;84.40
79494;SHT31;68951;53.130;18.104;2023-12-20T05:50:31;7.18;84.40
79494;SHT31;68951;53.130;18.104;2023-12-20T05:52:58;7.16;84.40
79494;SHT31;68951;53.130;18.104;2023-12-20T05:55:24;7.16;84.38
79494;SHT31;68951;53.130;18.104;2023-12-20T05:57:51;7.16;84.39
79494;SHT31;68951;53.130;18.104;2023-12-20T06:00:18;7.14;84.35
79494;SHT31;68951;53.130;18.104;2023-12-20T06:02:45;7.14;84.36
79494;SHT31;68951;53.130;18.104;2023-12-20T06:05:12;7.10;84.32
79494;SHT31;68951;53.130;18.104;2023-12-20T06:07:39;7.09;84.32
79494;SHT31;68951;53.130;18.104;2023-12-20T06:10:07;7.14;84.32
79494;SHT31;68951;53.130;18.104;2023-12-20T06:12:34;7.20;84.38
79494;SHT31;68951;53.130;18.104;2023-12-20T06:15:02;7.25;84.35
79494;SHT31;68951;53.130;18.104;2023-12-20T06:17:30;7.28;84.33
79494;SHT31;68951;53.130;18.104;2023-12-20T06:19:57;7.31;84.31
79494;SHT31;68951;53.130;18.104;2023-12-20T06:22:24;7.32;84.30
79494;SHT31;68951;53.130;18.104;2023-12-20T06:24:51;7.28;84.30
79494;SHT31;68951;53.130;18.104;2023-12-20T06:27:18;7.26;84.25
79494;SHT31;68951;53.130;18.104;2023-12-20T06:29:45;7.23;84.20
79494;SHT31;68951;53.130;18.104;2023-12-20T06:32:12;7.21;84.18
79494;SHT31;68951;53.130;18.104;2023-12-20T06:34:39;7.16;84.10
79494;SHT31;68951;53.130;18.104;2023-12-20T06:37:07;7.09;84.04
79494;SHT31;68951;53.130;18.104;2023-12-20T06:39:34;6.99;83.99
79494;SHT31;68951;53.130;18.104;2023-12-20T06:42:01;6.90;83.90
79494;SHT31;68951;53.130;18.104;2023-12-20T06:44:29;6.83;83.83
79494;SHT31;68951;53.130;18.104;2023-12-20T06:46:56;6.77;83.80
79494;SHT31;68951;53.130;18.104;2023-12-20T06:49:23;6.76;83.78
79494;SHT31;68951;53.130;18.104;2023-12-20T06:51:50;6.78;83.71
79494;SHT31;68951;53.130;18.104;2023-12-20T06:54:17;6.80;83.70
79494;SHT31;68951;53.130;18.104;2023-12-20T06:56:43;6.76;83.69
79494;SHT31;68951;53.130;18.104;2023-12-20T06:59:10;6.73;83.64
79494;SHT31;68951;53.130;18.104;2023-12-20T07:01:37;6.70;83.61
79494;SHT31;68951;53.130;18.104;2023-12-20T07:04:04;6.69;83.61
79494;SHT31;68951;53.130;18.104;2023-12-20T07:06:31;6.66;83.60
79494;SHT31;68951;53.130;18.104;2023-12-20T07:08:58;6.68;83.61
79494;SHT31;68951;53.130;18.104;2023-12-20T07:11:25;6.68;83.60
79494;SHT31;68951;53.130;18.104;2023-12-20T07:13:52;6.64;83.60
79494;SHT31;68951;53.130;18.104;2023-12-20T07:16:20;6.58;83.61
79494;SHT31;68951;53.130;18.104;2023-12-20T07:18:49;6.55;83.64
79494;SHT31;68951;53.130;18.104;2023-12-20T07:21:16;6.54;83.70
79494;SHT31;68951;53.130;18.104;2023-12-20T07:23:43;6.54;83.69
79494;SHT31;68951;53.130;18.104;2023-12-20T07:26:10;6.55;83.68
79494;SHT31;68951;53.130;18.104;2023-12-20T07:28:37;6.56;83.69
79494;SHT31;68951;53.130;18.104;2023-12-20T07:31:04;6.55;83.70
79494;SHT31;68951;53.130;18.104;2023-12-20T07:33:31;6.55;83.69
79494;SHT31;68951;53.130;18.104;2023-12-20T07:35:59;6.54;83.69
79494;SHT31;68951;53.130;18.104;2023-12-20T07:38:27;6.51;83.64
79494;SHT31;68951;53.130;18.104;2023-12-20T07:40:54;6.48;83.60
79494;SHT31;68951;53.130;18.104;2023-12-20T07:43:21;6.43;83.60
79494;SHT31;68951;53.130;18.104;2023-12-20T07:45:48;6.42;83.60
79494;SHT31;68951;53.130;18.104;2023-12-20T07:48:14;6.43;83.55
79494;SHT31;68951;53.130;18.104;2023-12-20T07:50:43;6.41;83.50
79494;SHT31;68951;53.130;18.104;2023-12-20T07:53:09;6.38;83.50
79494;SHT31;68951;53.130;18.104;2023-12-20T07:55:36;6.38;83.44
79494;SHT31;68951;53.130;18.104;2023-12-20T07:58:03;6.34;83.36
79494;SHT31;68951;53.130;18.104;2023-12-20T08:00:31;6.32;83.30
79494;SHT31;68951;53.130;18.104;2023-12-20T08:02:58;6.34;83.30
79494;SHT31;68951;53.130;18.104;2023-12-20T08:05:25;6.35;83.23
79494;SHT31;68951;53.130;18.104;2023-12-20T08:07:51;6.34;83.20
79494;SHT31;68951;53.130;18.104;2023-12-20T08:10:20;6.32;83.20
79494;SHT31;68951;53.130;18.104;2023-12-20T08:12:47;6.34;83.20
79494;SHT31;68951;53.130;18.104;2023-12-20T08:15:14;6.32;83.12
79494;SHT31;68951;53.130;18.104;2023-12-20T08:17:41;6.29;83.08
79494;SHT31;68951;53.130;18.104;2023-12-20T08:20:08;6.30;83.04
79494;SHT31;68951;53.130;18.104;2023-12-20T08:22:36;6.30;83.00
79494;SHT31;68951;53.130;18.104;2023-12-20T08:25:03;6.28;82.95
79494;SHT31;68951;53.130;18.104;2023-12-20T08:27:31;6.27;82.92
79494;SHT31;68951;53.130;18.104;2023-12-20T08:30:00;6.30;82.96
79494;SHT31;68951;53.130;18.104;2023-12-20T08:32:27;6.33;82.94
79494;SHT31;68951;53.130;18.104;2023-12-20T08:34:54;6.36;82.95
79494;SHT31;68951;53.130;18.104;2023-12-20T08:37:21;6.40;82.92
79494;SHT31;68951;53.130;18.104;2023-12-20T08:39:48;6.43;82.97
79494;SHT31;68951;53.130;18.104;2023-12-20T08:42:15;6.41;82.91
79494;SHT31;68951;53.130;18.104;2023-12-20T08:44:42;6.35;82.90
79494;SHT31;68951;53.130;18.104;2023-12-20T08:47:09;6.32;82.89
79494;SHT31;68951;53.130;18.104;2023-12-20T08:49:39;6.33;82.87
79494;SHT31;68951;53.130;18.104;2023-12-20T08:52:06;6.33;82.86
79494;SHT31;68951;53.130;18.104;2023-12-20T08:54:33;6.31;82.80
79494;SHT31;68951;53.130;18.104;2023-12-20T08:57:00;6.28;82.82
79494;SHT31;68951;53.130;18.104;2023-12-20T08:59:27;6.25;82.80
79494;SHT31;68951;53.130;18.104;2023-12-20T09:01:54;6.21;82.80
79494;SHT31;68951;53.130;18.104;2023-12-20T09:04:22;6.18;82.80
79494;SHT31;68951;53.130;18.104;2023-12-20T09:06:49;6.14;82.80
79494;SHT31;68951;53.130;18.104;2023-12-20T09:09:16;6.13;82.79
79494;SHT31;68951;53.130;18.104;2023-12-20T09:11:43;6.12;82.74
79494;SHT31;68951;53.130;18.104;2023-12-20T09:14:12;6.20;82.71
79494;SHT31;68951;53.130;18.104;2023-12-20T09:16:39;6.49;82.70
79494;SHT31;68951;53.130;18.104;2023-12-20T09:19:06;6.62;82.63
79494;SHT31;68951;53.130;18.104;2023-12-20T09:21:33;6.62;82.55
79494;SHT31;68951;53.130;18.104;2023-12-20T09:23:59;6.62;82.48
79494;SHT31;68951;53.130;18.104;2023-12-20T09:26:26;6.64;82.39
79494;SHT31;68951;53.130;18.104;2023-12-20T09:28:53;6.89;82.31
79494;SHT31;68951;53.130;18.104;2023-12-20T09:31:20;7.30;82.13
79494;SHT31;68951;53.130;18.104;2023-12-20T09:33:47;7.82;81.93
79494;SHT31;68951;53.130;18.104;2023-12-20T09:36:13;8.39;81.63
79494;SHT31;68951;53.130;18.104;2023-12-20T09:38:40;8.68;81.05
79494;SHT31;68951;53.130;18.104;2023-12-20T09:41:08;8.49;80.45
79494;SHT31;68951;53.130;18.104;2023-12-20T09:43:35;8.19;79.94
79494;SHT31;68951;53.130;18.104;2023-12-20T09:46:05;7.91;79.60
79494;SHT31;68951;53.130;18.104;2023-12-20T09:48:36;7.70;79.42
79494;SHT31;68951;53.130;18.104;2023-12-20T09:51:05;7.61;79.27
79494;SHT31;68951;53.130;18.104;2023-12-20T09:53:32;7.82;79.22
79494;SHT31;68951;53.130;18.104;2023-12-20T09:56:03;8.53;79.02
79494;SHT31;68951;53.130;18.104;2023-12-20T09:58:32;8.93;78.48
79494;SHT31;68951;53.130;18.104;2023-12-20T10:00:59;9.40;77.94
79494;SHT31;68951;53.130;18.104;2023-12-20T10:03:27;10.31;77.39
79494;SHT31;68951;53.130;18.104;2023-12-20T10:05:56;11.52;76.50
79494;SHT31;68951;53.130;18.104;2023-12-20T10:08:27;12.36;75.33
79494;SHT31;68951;53.130;18.104;2023-12-20T10:10:54;11.55;74.01
79494;SHT31;68951;53.130;18.104;2023-12-20T10:13:21;10.93;73.23
79494;SHT31;68951;53.130;18.104;2023-12-20T10:15:49;12.33;72.74
79494;SHT31;68951;53.130;18.104;2023-12-20T10:18:16;13.33;71.44
79494;SHT31;68951;53.130;18.104;2023-12-20T10:20:43;14.43;70.33
79494;SHT31;68951;53.130;18.104;2023-12-20T10:23:11;15.46;68.78
79494;SHT31;68951;53.130;18.104;2023-12-20T10:25:39;14.80;67.08
79494;SHT31;68951;53.130;18.104;2023-12-20T10:28:16;13.22;66.60
79494;SHT31;68951;53.130;18.104;2023-12-20T10:30:45;11.98;66.95
79494;SHT31;68951;53.130;18.104;2023-12-20T10:33:12;11.16;67.25
79494;SHT31;68951;53.130;18.104;2023-12-20T10:35:39;10.42;67.59
79494;SHT31;68951;53.130;18.104;2023-12-20T10:38:07;9.74;67.84
79494;SHT31;68951;53.130;18.104;2023-12-20T10:40:35;9.19;68.18
79494;SHT31;68951;53.130;18.104;2023-12-20T10:43:03;8.83;68.65
79494;SHT31;68951;53.130;18.104;2023-12-20T10:45:31;8.54;69.16
79494;SHT31;68951;53.130;18.104;2023-12-20T10:47:59;8.32;69.63
79494;SHT31;68951;53.130;18.104;2023-12-20T10:50:28;8.07;70.04
79494;SHT31;68951;53.130;18.104;2023-12-20T10:52:57;7.91;70.47
79494;SHT31;68951;53.130;18.104;2023-12-20T10:55:25;7.79;70.88
79494;SHT31;68951;53.130;18.104;2023-12-20T10:58:06;7.65;71.26
79494;SHT31;68951;53.130;18.104;2023-12-20T11:00:40;7.59;71.64
79494;SHT31;68951;53.130;18.104;2023-12-20T11:03:11;7.40;71.95
79494;SHT31;68951;53.130;18.104;2023-12-20T11:05:46;7.26;72.26
79494;SHT31;68951;53.130;18.104;2023-12-20T11:08:55;7.19;72.56
79494;SHT31;68951;53.130;18.104;2023-12-20T11:11:30;7.16;72.89
79494;SHT31;68951;53.130;18.104;2023-12-20T11:14:08;7.12;73.17
79494;SHT31;68951;53.130;18.104;2023-12-20T11:17:12;7.06;73.38
79494;SHT31;68951;53.130;18.104;2023-12-20T11:20:04;7.02;73.56
79494;SHT31;68951;53.130;18.104;2023-12-20T11:22:32;6.94;73.70
79494;SHT31;68951;53.130;18.104;2023-12-20T11:25:05;6.86;73.91
79494;SHT31;68951;53.130;18.104;2023-12-20T11:27:37;6.82;74.09
79494;SHT31;68951;53.130;18.104;2023-12-20T11:30:11;6.80;74.30
79494;SHT31;68951;53.130;18.104;2023-12-20T11:32:42;6.78;74.45
79494;SHT31;68951;53.130;18.104;2023-12-20T11:37:38;6.73;74.76
79494;SHT31;68951;53.130;18.104;2023-12-20T11:40:16;6.74;74.84
79494;SHT31;68951;53.130;18.104;2023-12-20T11:42:45;6.77;74.97
79494;SHT31;68951;53.130;18.104;2023-12-20T11:45:20;6.78;75.07
79494;SHT31;68951;53.130;18.104;2023-12-20T11:47:50;6.78;75.19
79494;SHT31;68951;53.130;18.104;2023-12-20T11:50:21;6.79;75.33
79494;SHT31;68951;53.130;18.104;2023-12-20T11:52:50;6.79;75.44
79494;SHT31;68951;53.130;18.104;2023-12-20T11:55:19;6.76;75.55
79494;SHT31;68951;53.130;18.104;2023-12-20T11:57:45;6.76;75.67
79494;SHT31;68951;53.130;18.104;2023-12-20T12:00:13;6.77;75.80
79494;SHT31;68951;53.130;18.104;2023-12-20T12:02:41;6.78;75.89
79494;SHT31;68951;53.130;18.104;2023-12-20T12:05:09;6.74;76.02
79494;SHT31;68951;53.130;18.104;2023-12-20T12:07:35;6.68;76.21
79494;SHT31;68951;53.130;18.104;2023-12-20T12:10:02;6.62;76.41
79494;SHT31;68951;53.130;18.104;2023-12-20T12:12:30;6.58;76.60
79494;SHT31;68951;53.130;18.104;2023-12-20T12:14:58;6.53;76.81
79494;SHT31;68951;53.130;18.104;2023-12-20T12:17:25;6.48;76.93
79494;SHT31;68951;53.130;18.104;2023-12-20T12:20:01;6.45;77.09
79494;SHT31;68951;53.130;18.104;2023-12-20T12:22:30;6.42;77.27
79494;SHT31;68951;53.130;18.104;2023-12-20T12:24:59;6.43;77.42
79494;SHT31;68951;53.130;18.104;2023-12-20T12:27:36;6.43;77.55
79494;SHT31;68951;53.130;18.104;2023-12-20T12:30:06;6.41;77.62
79494;SHT31;68951;53.130;18.104;2023-12-20T12:32:34;6.38;77.76
79494;SHT31;68951;53.130;18.104;2023-12-20T12:35:03;6.35;77.93
79494;SHT31;68951;53.130;18.104;2023-12-20T12:37:37;6.33;78.08
79494;SHT31;68951;53.130;18.104;2023-12-20T12:40:09;6.31;78.23
79494;SHT31;68951;53.130;18.104;2023-12-20T12:42:41;6.33;78.36
79494;SHT31;68951;53.130;18.104;2023-12-20T12:45:11;6.32;78.48
79494;SHT31;68951;53.130;18.104;2023-12-20T12:47:39;6.30;78.62
79494;SHT31;68951;53.130;18.104;2023-12-20T12:50:07;6.28;78.74
79494;SHT31;68951;53.130;18.104;2023-12-20T12:52:34;6.28;78.82
79494;SHT31;68951;53.130;18.104;2023-12-20T12:55:01;6.31;78.90
79494;SHT31;68951;53.130;18.104;2023-12-20T12:57:30;6.29;79.01
79494;SHT31;68951;53.130;18.104;2023-12-20T12:59:57;6.26;79.11
79494;SHT31;68951;53.130;18.104;2023-12-20T13:02:24;6.22;79.19
79494;SHT31;68951;53.130;18.104;2023-12-20T13:04:52;6.18;79.31
79494;SHT31;68951;53.130;18.104;2023-12-20T13:07:18;6.16;79.44
79494;SHT31;68951;53.130;18.104;2023-12-20T13:09:45;6.17;79.53
79494;SHT31;68951;53.130;18.104;2023-12-20T13:12:13;6.17;79.63
79494;SHT31;68951;53.130;18.104;2023-12-20T13:14:39;6.20;79.70
79494;SHT31;68951;53.130;18.104;2023-12-20T13:17:07;6.23;79.75
79494;SHT31;68951;53.130;18.104;2023-12-20T13:19:34;6.20;79.80
79494;SHT31;68951;53.130;18.104;2023-12-20T13:22:00;6.16;79.88
79494;SHT31;68951;53.130;18.104;2023-12-20T13:24:27;6.14;79.92
79494;SHT31;68951;53.130;18.104;2023-12-20T13:26:55;6.15;80.00
79494;SHT31;68951;53.130;18.104;2023-12-20T13:29:22;6.19;80.00
79494;SHT31;68951;53.130;18.104;2023-12-20T13:31:50;6.21;80.01
79494;SHT31;68951;53.130;18.104;2023-12-20T13:34:17;6.20;80.07
79494;SHT31;68951;53.130;18.104;2023-12-20T13:36:44;6.20;80.05
79494;SHT31;68951;53.130;18.104;2023-12-20T13:39:13;6.18;80.06
79494;SHT31;68951;53.130;18.104;2023-12-20T13:41:40;6.17;80.10
79494;SHT31;68951;53.130;18.104;2023-12-20T13:44:07;6.18;80.10
79494;SHT31;68951;53.130;18.104;2023-12-20T13:46:35;6.18;80.10
79494;SHT31;68951;53.130;18.104;2023-12-20T13:49:03;6.18;80.10
79494;SHT31;68951;53.130;18.104;2023-12-20T13:51:31;6.19;80.10
79494;SHT31;68951;53.130;18.104;2023-12-20T13:53:58;6.19;80.11
79494;SHT31;68951;53.130;18.104;2023-12-20T13:56:25;6.23;80.10
79494;SHT31;68951;53.130;18.104;2023-12-20T13:58:52;6.23;80.10
79494;SHT31;68951;53.130;18.104;2023-12-20T14:01:19;6.23;80.10
79494;SHT31;68951;53.130;18.104;2023-12-20T14:03:46;6.23;80.10
79494;SHT31;68951;53.130;18.104;2023-12-20T14:06:13;6.23;80.05
79494;SHT31;68951;53.130;18.104;2023-12-20T14:08:41;6.23;80.00
79494;SHT31;68951;53.130;18.104;2023-12-20T14:11:09;6.23;80.00
79494;SHT31;68951;53.130;18.104;2023-12-20T14:13:37;6.23;79.99
79494;SHT31;68951;53.130;18.104;2023-12-20T14:16:03;6.25;79.90
79494;SHT31;68951;53.130;18.104;2023-12-20T14:18:32;6.26;79.90
79494;SHT31;68951;53.130;18.104;2023-12-20T14:20:58;6.24;79.89
79494;SHT31;68951;53.130;18.104;2023-12-20T14:23:25;6.23;79.84
79494;SHT31;68951;53.130;18.104;2023-12-20T14:25:52;6.20;79.80
79494;SHT31;68951;53.130;18.104;2023-12-20T14:28:19;6.19;79.81
79494;SHT31;68951;53.130;18.104;2023-12-20T14:30:46;6.19;79.80
79494;SHT31;68951;53.130;18.104;2023-12-20T14:33:13;6.21;79.81
79494;SHT31;68951;53.130;18.104;2023-12-20T14:35:40;6.22;79.80
79494;SHT31;68951;53.130;18.104;2023-12-20T14:38:08;6.22;79.78
79494;SHT31;68951;53.130;18.104;2023-12-20T14:40:35;6.22;79.77
79494;SHT31;68951;53.130;18.104;2023-12-20T14:43:02;6.24;79.73
79494;SHT31;68951;53.130;18.104;2023-12-20T14:45:30;6.26;79.70
79494;SHT31;68951;53.130;18.104;2023-12-20T14:47:57;6.27;79.70
79494;SHT31;68951;53.130;18.104;2023-12-20T14:50:25;6.28;79.68
79494;SHT31;68951;53.130;18.104;2023-12-20T14:52:52;6.29;79.61
79494;SHT31;68951;53.130;18.104;2023-12-20T14:55:21;6.30;79.60
79494;SHT31;68951;53.130;18.104;2023-12-20T14:57:48;6.31;79.52
79494;SHT31;68951;53.130;18.104;2023-12-20T15:00:16;6.30;79.49
79494;SHT31;68951;53.130;18.104;2023-12-20T15:02:43;6.30;79.41
79494;SHT31;68951;53.130;18.104;2023-12-20T15:05:11;6.31;79.38
79494;SHT31;68951;53.130;18.104;2023-12-20T15:07:38;6.31;79.30
79494;SHT31;68951;53.130;18.104;2023-12-20T15:47:26;5.85;80.32
79494;SHT31;68951;53.130;18.104;2023-12-20T16:39:19;5.67;82.00
79494;SHT31;68951;53.130;18.104;2023-12-20T16:41:47;5.71;82.00
79494;SHT31;68951;53.130;18.104;2023-12-20T16:44:15;5.72;82.00
79494;SHT31;68951;53.130;18.104;2023-12-20T16:46:43;5.74;81.92
79494;SHT31;68951;53.130;18.104;2023-12-20T16:49:10;5.76;81.90
79494;SHT31;68951;53.130;18.104;2023-12-20T16:51:37;5.75;81.83
79494;SHT31;68951;53.130;18.104;2023-12-20T16:54:04;5.78;81.80
79494;SHT31;68951;53.130;18.104;2023-12-20T16:56:31;5.81;81.78
79494;SHT31;68951;53.130;18.104;2023-12-20T16:58:58;5.82;81.70
79494;SHT31;68951;53.130;18.104;2023-12-20T17:01:26;5.86;81.70
79494;SHT31;68951;53.130;18.104;2023-12-20T17:03:53;5.87;81.59